Current | Forecast
Updated: 8:30 AM +07 on April 23, 2018
Observed at Nizhnevartovsk, Russia
Temperature 25°F
Windchill 16°F
Humidity 59%
Dew Point 12°F
Wind SSE at 9 mph
Pressure 30.04 in (Steady)
Conditions Clear
Visibility -
UV N/A
Clouds
Yesterday's Maximum 30°F
Yesterday's Minimum 9°F approx.
Yesterday's Heating Degree Days 46 approx.
Sunrise4:04 AM +05
Sunset7:30 PM +05
Moon Rise9:56 AM +05
Moon Set2:33 AM +05
Moon PhaseMoon Phase
First Quarter
Raw METARMETAR USNN 230130Z 15004MPS CAVOK M04/M11 Q1017 R21/0///65 NOSIG RMK QFE758


Monday
. High: 55° F.
Tuesday
. High: 66° F.
Wednesday
. High: 68° F.
Thursday
. High: 62° F.
Friday
. High: 46° F.
Saturday
. High: 53° F.
Sunday
. High: 59° F.
Monday
. High: 64° F.

Units: English | Metric

Find the Weather for any City, State or Zipcode, or Country:

U.S. State List | Severe Weather | Tropical Storms | Ski Conditions
United States | Canada | Central America | South America | Asia | Europe | Australia | Africa | Islands

Weather Underground

© Copyright 2018
The Weather Company, LLC